KWLD/WLD METAR and TAF weather

Enter ICAO airport designator
Station Type Date Time Source
KWLD METAR 2021/03/09 10:54 UTC NOAA

KWLD 091054Z AUTO 16017KT 10SM CLR 13/04 A3006 RMK AO2 SLP173 T01280044


Station Type Date Time Source
KWLD Decoded METAR 2021/03/09 10:54 UTC NOAA

STROTHER FIELD, KS, United States (KWLD) 37-10N 97-02W 350M
Mar 09, 2021 - 05:54 AM EST / 2021.03.09 1054 UTC
Wind: from the SSE (160 degrees) at 20 MPH (17 KT):0
Visibility: 10 mile(s):0
Sky conditions: clear
Temperature: 55.0 F (12.8 C)
Dew Point: 39.9 F (4.4 C)
Relative Humidity: 56%
Pressure (altimeter): 30.06 in. Hg (1017 hPa)
ob: KWLD 091054Z AUTO 16017KT 10SM CLR 13/04 A3006 RMK AO2 SLP173 T01280044
cycle: 11

Station Type Date Time Source
KWLD TAF UTC NOAA

Error!

Example: see airport list